sensor_id;sensor_type;location;lat;lon;timestamp;P1;durP1;ratioP1;P2;durP2;ratioP2
33006;SDS011;19361;51.598;7.650;2023-05-07T00:00:28;4.00;;;3.60;;
33006;SDS011;19361;51.598;7.650;2023-05-07T00:05:50;4.07;;;3.60;;
33006;SDS011;19361;51.598;7.650;2023-05-07T00:11:13;4.03;;;3.72;;
33006;SDS011;19361;51.598;7.650;2023-05-07T00:16:34;3.75;;;3.45;;
33006;SDS011;19361;51.598;7.650;2023-05-07T00:21:55;4.07;;;3.67;;
33006;SDS011;19361;51.598;7.650;2023-05-07T00:27:16;3.95;;;3.65;;
33006;SDS011;19361;51.598;7.650;2023-05-07T00:32:37;3.80;;;3.50;;
33006;SDS011;19361;51.598;7.650;2023-05-07T00:37:59;6.75;;;3.63;;
33006;SDS011;19361;51.598;7.650;2023-05-07T00:43:20;3.65;;;3.20;;
33006;SDS011;19361;51.598;7.650;2023-05-07T00:48:41;3.97;;;3.58;;
33006;SDS011;19361;51.598;7.650;2023-05-07T00:54:02;3.28;;;3.08;;
33006;SDS011;19361;51.598;7.650;2023-05-07T00:59:24;3.75;;;3.28;;
33006;SDS011;19361;51.598;7.650;2023-05-07T01:04:45;3.58;;;3.22;;
33006;SDS011;19361;51.598;7.650;2023-05-07T01:10:06;3.95;;;3.65;;
33006;SDS011;19361;51.598;7.650;2023-05-07T01:15:28;4.13;;;3.13;;
33006;SDS011;19361;51.598;7.650;2023-05-07T01:20:49;4.45;;;3.65;;
33006;SDS011;19361;51.598;7.650;2023-05-07T01:26:11;8.55;;;4.22;;
33006;SDS011;19361;51.598;7.650;2023-05-07T01:31:33;7.18;;;4.28;;
33006;SDS011;19361;51.598;7.650;2023-05-07T01:36:56;4.65;;;4.25;;
33006;SDS011;19361;51.598;7.650;2023-05-07T01:42:18;4.22;;;3.83;;
33006;SDS011;19361;51.598;7.650;2023-05-07T01:47:39;4.22;;;3.90;;
33006;SDS011;19361;51.598;7.650;2023-05-07T01:53:01;8.85;;;4.20;;
33006;SDS011;19361;51.598;7.650;2023-05-07T01:58:22;5.78;;;4.22;;
33006;SDS011;19361;51.598;7.650;2023-05-07T02:03:44;4.40;;;4.00;;
33006;SDS011;19361;51.598;7.650;2023-05-07T02:09:05;4.38;;;4.00;;
33006;SDS011;19361;51.598;7.650;2023-05-07T02:14:26;4.80;;;4.40;;
33006;SDS011;19361;51.598;7.650;2023-05-07T02:19:47;4.88;;;4.47;;
33006;SDS011;19361;51.598;7.650;2023-05-07T02:25:08;4.32;;;4.00;;
33006;SDS011;19361;51.598;7.650;2023-05-07T02:30:29;7.07;;;4.40;;
33006;SDS011;19361;51.598;7.650;2023-05-07T02:35:50;4.50;;;4.20;;
33006;SDS011;19361;51.598;7.650;2023-05-07T02:41:12;5.18;;;4.68;;
33006;SDS011;19361;51.598;7.650;2023-05-07T02:46:33;6.03;;;4.30;;
33006;SDS011;19361;51.598;7.650;2023-05-07T02:51:54;4.68;;;4.28;;
33006;SDS011;19361;51.598;7.650;2023-05-07T02:57:16;4.72;;;4.25;;
33006;SDS011;19361;51.598;7.650;2023-05-07T03:02:37;6.63;;;4.40;;
33006;SDS011;19361;51.598;7.650;2023-05-07T03:07:58;4.82;;;4.43;;
33006;SDS011;19361;51.598;7.650;2023-05-07T03:13:19;5.13;;;4.38;;
33006;SDS011;19361;51.598;7.650;2023-05-07T03:18:40;5.82;;;4.97;;
33006;SDS011;19361;51.598;7.650;2023-05-07T03:24:01;4.85;;;3.97;;
33006;SDS011;19361;51.598;7.650;2023-05-07T03:29:22;7.13;;;4.43;;
33006;SDS011;19361;51.598;7.650;2023-05-07T03:34:43;6.60;;;4.47;;
33006;SDS011;19361;51.598;7.650;2023-05-07T03:40:04;4.65;;;4.22;;
33006;SDS011;19361;51.598;7.650;2023-05-07T03:45:26;4.53;;;4.20;;
33006;SDS011;19361;51.598;7.650;2023-05-07T03:50:47;4.95;;;4.28;;
33006;SDS011;19361;51.598;7.650;2023-05-07T03:56:08;4.97;;;4.43;;
33006;SDS011;19361;51.598;7.650;2023-05-07T04:01:29;7.78;;;5.10;;
33006;SDS011;19361;51.598;7.650;2023-05-07T04:06:50;5.80;;;4.28;;
33006;SDS011;19361;51.598;7.650;2023-05-07T04:12:11;5.13;;;4.72;;
33006;SDS011;19361;51.598;7.650;2023-05-07T04:17:32;4.93;;;4.53;;
33006;SDS011;19361;51.598;7.650;2023-05-07T04:22:53;5.97;;;5.05;;
33006;SDS011;19361;51.598;7.650;2023-05-07T04:28:15;5.70;;;5.20;;
33006;SDS011;19361;51.598;7.650;2023-05-07T04:33:36;5.40;;;4.90;;
33006;SDS011;19361;51.598;7.650;2023-05-07T04:38:57;5.03;;;4.53;;
33006;SDS011;19361;51.598;7.650;2023-05-07T04:44:18;7.30;;;5.00;;
33006;SDS011;19361;51.598;7.650;2023-05-07T04:49:39;5.75;;;5.10;;
33006;SDS011;19361;51.598;7.650;2023-05-07T04:55:01;5.72;;;5.22;;
33006;SDS011;19361;51.598;7.650;2023-05-07T05:00:22;6.47;;;5.78;;
33006;SDS011;19361;51.598;7.650;2023-05-07T05:05:43;7.47;;;5.85;;
33006;SDS011;19361;51.598;7.650;2023-05-07T05:11:04;6.75;;;5.70;;
33006;SDS011;19361;51.598;7.650;2023-05-07T05:16:25;6.80;;;6.13;;
33006;SDS011;19361;51.598;7.650;2023-05-07T05:21:46;7.88;;;6.93;;
33006;SDS011;19361;51.598;7.650;2023-05-07T05:27:07;11.07;;;8.13;;
33006;SDS011;19361;51.598;7.650;2023-05-07T05:32:29;7.65;;;6.85;;
33006;SDS011;19361;51.598;7.650;2023-05-07T05:37:50;8.60;;;7.90;;
33006;SDS011;19361;51.598;7.650;2023-05-07T05:43:11;10.77;;;7.32;;
33006;SDS011;19361;51.598;7.650;2023-05-07T05:48:32;9.82;;;8.93;;
33006;SDS011;19361;51.598;7.650;2023-05-07T05:53:53;11.38;;;9.32;;
33006;SDS011;19361;51.598;7.650;2023-05-07T05:59:14;10.27;;;9.27;;
33006;SDS011;19361;51.598;7.650;2023-05-07T06:04:35;14.70;;;9.63;;
33006;SDS011;19361;51.598;7.650;2023-05-07T06:09:56;10.57;;;9.13;;
33006;SDS011;19361;51.598;7.650;2023-05-07T06:15:17;13.77;;;10.25;;
33006;SDS011;19361;51.598;7.650;2023-05-07T06:20:38;13.07;;;11.73;;
33006;SDS011;19361;51.598;7.650;2023-05-07T06:25:59;13.25;;;11.73;;
33006;SDS011;19361;51.598;7.650;2023-05-07T06:31:20;12.18;;;10.48;;
33006;SDS011;19361;51.598;7.650;2023-05-07T06:36:41;12.93;;;11.63;;
33006;SDS011;19361;51.598;7.650;2023-05-07T06:42:03;14.95;;;13.25;;
33006;SDS011;19361;51.598;7.650;2023-05-07T06:47:24;13.55;;;11.77;;
33006;SDS011;19361;51.598;7.650;2023-05-07T06:52:45;15.18;;;12.73;;
33006;SDS011;19361;51.598;7.650;2023-05-07T06:58:07;20.05;;;13.57;;
33006;SDS011;19361;51.598;7.650;2023-05-07T07:03:28;15.38;;;12.98;;
33006;SDS011;19361;51.598;7.650;2023-05-07T07:08:49;14.60;;;13.00;;
33006;SDS011;19361;51.598;7.650;2023-05-07T07:14:10;14.00;;;12.60;;
33006;SDS011;19361;51.598;7.650;2023-05-07T07:19:31;15.30;;;13.32;;
33006;SDS011;19361;51.598;7.650;2023-05-07T07:24:52;14.55;;;13.05;;
33006;SDS011;19361;51.598;7.650;2023-05-07T07:30:13;16.95;;;13.20;;
33006;SDS011;19361;51.598;7.650;2023-05-07T07:35:34;15.73;;;13.88;;
33006;SDS011;19361;51.598;7.650;2023-05-07T07:40:55;19.40;;;12.40;;
33006;SDS011;19361;51.598;7.650;2023-05-07T07:46:16;15.73;;;14.05;;
33006;SDS011;19361;51.598;7.650;2023-05-07T07:51:37;14.30;;;12.50;;
33006;SDS011;19361;51.598;7.650;2023-05-07T07:56:59;16.42;;;14.15;;
33006;SDS011;19361;51.598;7.650;2023-05-07T08:02:20;15.85;;;13.82;;
33006;SDS011;19361;51.598;7.650;2023-05-07T08:07:41;15.55;;;13.73;;
33006;SDS011;19361;51.598;7.650;2023-05-07T08:13:02;15.52;;;13.18;;
33006;SDS011;19361;51.598;7.650;2023-05-07T08:18:24;14.90;;;13.13;;
33006;SDS011;19361;51.598;7.650;2023-05-07T08:23:46;15.93;;;13.73;;
33006;SDS011;19361;51.598;7.650;2023-05-07T08:29:07;15.05;;;13.20;;
33006;SDS011;19361;51.598;7.650;2023-05-07T08:34:28;16.23;;;14.05;;
33006;SDS011;19361;51.598;7.650;2023-05-07T08:39:49;21.33;;;14.43;;
33006;SDS011;19361;51.598;7.650;2023-05-07T08:45:10;20.50;;;14.57;;
33006;SDS011;19361;51.598;7.650;2023-05-07T08:50:31;16.70;;;14.20;;
33006;SDS011;19361;51.598;7.650;2023-05-07T08:55:56;15.65;;;12.95;;
33006;SDS011;19361;51.598;7.650;2023-05-07T09:01:17;18.52;;;16.40;;
33006;SDS011;19361;51.598;7.650;2023-05-07T09:06:38;16.08;;;14.38;;
33006;SDS011;19361;51.598;7.650;2023-05-07T09:12:02;20.50;;;15.63;;
33006;SDS011;19361;51.598;7.650;2023-05-07T09:17:24;17.77;;;15.73;;
33006;SDS011;19361;51.598;7.650;2023-05-07T09:22:45;17.60;;;15.57;;
33006;SDS011;19361;51.598;7.650;2023-05-07T09:28:06;15.63;;;13.98;;
33006;SDS011;19361;51.598;7.650;2023-05-07T09:33:27;16.20;;;14.50;;
33006;SDS011;19361;51.598;7.650;2023-05-07T09:38:48;16.77;;;14.88;;
33006;SDS011;19361;51.598;7.650;2023-05-07T09:44:10;18.52;;;14.68;;
33006;SDS011;19361;51.598;7.650;2023-05-07T09:49:33;19.48;;;14.70;;
33006;SDS011;19361;51.598;7.650;2023-05-07T09:54:57;18.77;;;14.43;;
33006;SDS011;19361;51.598;7.650;2023-05-07T10:00:20;18.33;;;14.57;;
33006;SDS011;19361;51.598;7.650;2023-05-07T10:05:43;16.33;;;12.30;;
33006;SDS011;19361;51.598;7.650;2023-05-07T10:11:06;20.83;;;14.25;;
33006;SDS011;19361;51.598;7.650;2023-05-07T10:16:29;15.90;;;14.20;;
33006;SDS011;19361;51.598;7.650;2023-05-07T10:21:58;19.00;;;14.88;;
33006;SDS011;19361;51.598;7.650;2023-05-07T10:27:25;16.17;;;13.32;;
33006;SDS011;19361;51.598;7.650;2023-05-07T10:32:47;18.17;;;14.88;;
33006;SDS011;19361;51.598;7.650;2023-05-07T10:38:11;17.17;;;13.93;;
33006;SDS011;19361;51.598;7.650;2023-05-07T10:43:41;18.23;;;13.23;;
33006;SDS011;19361;51.598;7.650;2023-05-07T10:54:28;14.38;;;12.48;;
33006;SDS011;19361;51.598;7.650;2023-05-07T10:59:49;12.23;;;11.10;;
33006;SDS011;19361;51.598;7.650;2023-05-07T11:05:22;13.63;;;12.05;;
33006;SDS011;19361;51.598;7.650;2023-05-07T11:10:56;13.88;;;12.20;;
33006;SDS011;19361;51.598;7.650;2023-05-07T11:16:19;13.23;;;10.50;;
33006;SDS011;19361;51.598;7.650;2023-05-07T11:21:44;13.30;;;11.98;;
33006;SDS011;19361;51.598;7.650;2023-05-07T11:27:06;10.50;;;9.43;;
33006;SDS011;19361;51.598;7.650;2023-05-07T11:32:28;10.73;;;9.68;;
33006;SDS011;19361;51.598;7.650;2023-05-07T11:37:50;10.77;;;8.32;;
33006;SDS011;19361;51.598;7.650;2023-05-07T11:43:20;12.00;;;9.60;;
33006;SDS011;19361;51.598;7.650;2023-05-07T11:48:41;8.82;;;8.02;;
33006;SDS011;19361;51.598;7.650;2023-05-07T11:54:04;8.43;;;7.63;;
33006;SDS011;19361;51.598;7.650;2023-05-07T11:59:28;8.15;;;6.57;;
33006;SDS011;19361;51.598;7.650;2023-05-07T12:04:53;7.40;;;6.70;;
33006;SDS011;19361;51.598;7.650;2023-05-07T12:10:15;7.40;;;6.20;;
33006;SDS011;19361;51.598;7.650;2023-05-07T12:15:37;9.48;;;7.00;;
33006;SDS011;19361;51.598;7.650;2023-05-07T12:20:57;10.80;;;7.00;;
33006;SDS011;19361;51.598;7.650;2023-05-07T12:26:19;7.80;;;6.57;;
33006;SDS011;19361;51.598;7.650;2023-05-07T12:31:41;8.98;;;7.85;;
33006;SDS011;19361;51.598;7.650;2023-05-07T12:37:03;8.60;;;6.78;;
33006;SDS011;19361;51.598;7.650;2023-05-07T12:42:24;7.65;;;6.90;;
33006;SDS011;19361;51.598;7.650;2023-05-07T12:47:46;7.55;;;6.75;;
33006;SDS011;19361;51.598;7.650;2023-05-07T12:53:08;7.28;;;6.43;;
33006;SDS011;19361;51.598;7.650;2023-05-07T12:58:33;6.63;;;5.93;;
33006;SDS011;19361;51.598;7.650;2023-05-07T13:03:55;6.65;;;5.97;;
33006;SDS011;19361;51.598;7.650;2023-05-07T13:09:21;8.70;;;7.45;;
33006;SDS011;19361;51.598;7.650;2023-05-07T13:14:42;8.07;;;7.28;;
33006;SDS011;19361;51.598;7.650;2023-05-07T13:20:03;9.80;;;8.88;;
33006;SDS011;19361;51.598;7.650;2023-05-07T13:25:25;9.38;;;8.30;;
33006;SDS011;19361;51.598;7.650;2023-05-07T13:30:46;8.20;;;7.50;;
33006;SDS011;19361;51.598;7.650;2023-05-07T13:36:08;11.00;;;7.70;;
33006;SDS011;19361;51.598;7.650;2023-05-07T13:41:29;7.72;;;7.05;;
33006;SDS011;19361;51.598;7.650;2023-05-07T13:46:50;8.38;;;7.60;;
33006;SDS011;19361;51.598;7.650;2023-05-07T13:52:11;10.15;;;7.75;;
33006;SDS011;19361;51.598;7.650;2023-05-07T13:57:32;10.48;;;6.45;;
33006;SDS011;19361;51.598;7.650;2023-05-07T14:02:54;6.43;;;5.30;;
33006;SDS011;19361;51.598;7.650;2023-05-07T14:08:16;5.75;;;5.15;;
33006;SDS011;19361;51.598;7.650;2023-05-07T14:13:40;5.30;;;4.80;;
33006;SDS011;19361;51.598;7.650;2023-05-07T14:19:01;5.57;;;5.07;;
33006;SDS011;19361;51.598;7.650;2023-05-07T14:24:22;6.10;;;5.50;;
33006;SDS011;19361;51.598;7.650;2023-05-07T14:29:44;6.90;;;5.55;;
33006;SDS011;19361;51.598;7.650;2023-05-07T14:35:06;6.85;;;5.97;;
33006;SDS011;19361;51.598;7.650;2023-05-07T14:40:27;7.45;;;6.07;;
33006;SDS011;19361;51.598;7.650;2023-05-07T14:45:48;7.50;;;5.72;;
33006;SDS011;19361;51.598;7.650;2023-05-07T14:51:10;6.32;;;5.72;;
33006;SDS011;19361;51.598;7.650;2023-05-07T14:56:31;5.25;;;4.85;;
33006;SDS011;19361;51.598;7.650;2023-05-07T15:01:52;5.68;;;4.18;;
33006;SDS011;19361;51.598;7.650;2023-05-07T15:07:14;4.50;;;4.10;;
33006;SDS011;19361;51.598;7.650;2023-05-07T15:12:35;4.53;;;4.13;;
33006;SDS011;19361;51.598;7.650;2023-05-07T15:17:57;4.55;;;3.83;;
33006;SDS011;19361;51.598;7.650;2023-05-07T15:23:20;3.85;;;3.55;;
33006;SDS011;19361;51.598;7.650;2023-05-07T15:28:41;3.67;;;3.30;;
33006;SDS011;19361;51.598;7.650;2023-05-07T15:34:02;3.72;;;3.40;;
33006;SDS011;19361;51.598;7.650;2023-05-07T15:39:23;5.38;;;3.72;;
33006;SDS011;19361;51.598;7.650;2023-05-07T15:44:44;3.08;;;2.88;;
33006;SDS011;19361;51.598;7.650;2023-05-07T15:50:06;4.43;;;3.40;;
33006;SDS011;19361;51.598;7.650;2023-05-07T15:55:28;3.15;;;2.88;;
33006;SDS011;19361;51.598;7.650;2023-05-07T16:00:50;3.13;;;2.83;;
33006;SDS011;19361;51.598;7.650;2023-05-07T16:06:12;2.50;;;2.30;;
33006;SDS011;19361;51.598;7.650;2023-05-07T16:11:33;5.63;;;2.70;;
33006;SDS011;19361;51.598;7.650;2023-05-07T16:16:55;5.18;;;2.70;;
33006;SDS011;19361;51.598;7.650;2023-05-07T16:22:17;2.63;;;2.30;;
33006;SDS011;19361;51.598;7.650;2023-05-07T16:27:39;2.30;;;2.10;;
33006;SDS011;19361;51.598;7.650;2023-05-07T16:33:00;5.28;;;2.13;;
33006;SDS011;19361;51.598;7.650;2023-05-07T16:38:21;2.08;;;1.70;;
33006;SDS011;19361;51.598;7.650;2023-05-07T16:43:42;2.47;;;2.28;;
33006;SDS011;19361;51.598;7.650;2023-05-07T16:49:03;10.40;;;2.75;;
33006;SDS011;19361;51.598;7.650;2023-05-07T16:54:24;1.95;;;1.75;;
33006;SDS011;19361;51.598;7.650;2023-05-07T16:59:45;2.22;;;1.90;;
33006;SDS011;19361;51.598;7.650;2023-05-07T17:05:06;2.30;;;2.10;;
33006;SDS011;19361;51.598;7.650;2023-05-07T17:10:28;2.88;;;2.13;;
33006;SDS011;19361;51.598;7.650;2023-05-07T17:15:49;2.10;;;2.00;;
33006;SDS011;19361;51.598;7.650;2023-05-07T17:21:10;2.45;;;2.25;;
33006;SDS011;19361;51.598;7.650;2023-05-07T17:26:31;4.63;;;2.50;;
33006;SDS011;19361;51.598;7.650;2023-05-07T17:31:55;3.10;;;2.65;;
33006;SDS011;19361;51.598;7.650;2023-05-07T17:37:16;2.50;;;2.30;;
33006;SDS011;19361;51.598;7.650;2023-05-07T17:42:37;2.85;;;2.65;;
33006;SDS011;19361;51.598;7.650;2023-05-07T17:47:58;4.18;;;3.55;;
33006;SDS011;19361;51.598;7.650;2023-05-07T17:53:20;4.97;;;2.72;;
33006;SDS011;19361;51.598;7.650;2023-05-07T17:58:43;2.88;;;2.67;;
33006;SDS011;19361;51.598;7.650;2023-05-07T18:04:05;5.10;;;3.72;;
33006;SDS011;19361;51.598;7.650;2023-05-07T18:09:26;7.53;;;5.15;;
33006;SDS011;19361;51.598;7.650;2023-05-07T18:14:47;8.45;;;6.50;;
33006;SDS011;19361;51.598;7.650;2023-05-07T18:20:08;6.97;;;6.20;;
33006;SDS011;19361;51.598;7.650;2023-05-07T18:25:30;8.32;;;7.53;;
33006;SDS011;19361;51.598;7.650;2023-05-07T18:30:52;8.30;;;7.10;;
33006;SDS011;19361;51.598;7.650;2023-05-07T18:36:13;9.77;;;8.30;;
33006;SDS011;19361;51.598;7.650;2023-05-07T18:41:34;8.48;;;7.65;;
33006;SDS011;19361;51.598;7.650;2023-05-07T18:46:56;10.50;;;9.43;;
33006;SDS011;19361;51.598;7.650;2023-05-07T18:52:17;10.88;;;9.82;;
33006;SDS011;19361;51.598;7.650;2023-05-07T18:57:41;14.75;;;10.75;;
33006;SDS011;19361;51.598;7.650;2023-05-07T19:03:04;11.85;;;10.32;;
33006;SDS011;19361;51.598;7.650;2023-05-07T19:08:25;11.65;;;10.55;;
33006;SDS011;19361;51.598;7.650;2023-05-07T19:13:46;13.68;;;11.50;;
33006;SDS011;19361;51.598;7.650;2023-05-07T19:19:07;12.82;;;11.52;;
33006;SDS011;19361;51.598;7.650;2023-05-07T19:24:28;12.85;;;11.55;;
33006;SDS011;19361;51.598;7.650;2023-05-07T19:29:50;14.07;;;12.68;;
33006;SDS011;19361;51.598;7.650;2023-05-07T19:35:11;11.95;;;10.75;;
33006;SDS011;19361;51.598;7.650;2023-05-07T19:40:32;14.55;;;11.98;;
33006;SDS011;19361;51.598;7.650;2023-05-07T19:45:53;12.60;;;11.13;;
33006;SDS011;19361;51.598;7.650;2023-05-07T19:51:14;13.27;;;11.98;;
33006;SDS011;19361;51.598;7.650;2023-05-07T19:56:35;12.23;;;11.02;;
33006;SDS011;19361;51.598;7.650;2023-05-07T20:01:56;12.93;;;11.60;;
33006;SDS011;19361;51.598;7.650;2023-05-07T20:07:17;13.45;;;10.73;;
33006;SDS011;19361;51.598;7.650;2023-05-07T20:12:39;14.27;;;12.77;;
33006;SDS011;19361;51.598;7.650;2023-05-07T20:18:00;16.67;;;13.07;;
33006;SDS011;19361;51.598;7.650;2023-05-07T20:23:21;13.45;;;12.05;;
33006;SDS011;19361;51.598;7.650;2023-05-07T20:28:42;17.63;;;13.27;;
33006;SDS011;19361;51.598;7.650;2023-05-07T20:34:03;13.32;;;11.90;;
33006;SDS011;19361;51.598;7.650;2023-05-07T20:39:24;13.52;;;12.23;;
33006;SDS011;19361;51.598;7.650;2023-05-07T20:44:45;13.50;;;12.10;;
33006;SDS011;19361;51.598;7.650;2023-05-07T20:50:06;14.13;;;12.55;;
33006;SDS011;19361;51.598;7.650;2023-05-07T20:55:27;14.93;;;13.02;;
33006;SDS011;19361;51.598;7.650;2023-05-07T21:00:48;14.15;;;12.63;;
33006;SDS011;19361;51.598;7.650;2023-05-07T21:06:13;13.73;;;12.32;;
33006;SDS011;19361;51.598;7.650;2023-05-07T21:11:34;13.05;;;11.73;;
33006;SDS011;19361;51.598;7.650;2023-05-07T21:16:55;14.90;;;13.05;;
33006;SDS011;19361;51.598;7.650;2023-05-07T21:22:16;13.38;;;11.98;;
33006;SDS011;19361;51.598;7.650;2023-05-07T21:27:37;15.52;;;11.77;;
33006;SDS011;19361;51.598;7.650;2023-05-07T21:32:58;12.68;;;11.43;;
33006;SDS011;19361;51.598;7.650;2023-05-07T21:38:19;12.38;;;10.63;;
33006;SDS011;19361;51.598;7.650;2023-05-07T21:43:40;12.20;;;11.00;;
33006;SDS011;19361;51.598;7.650;2023-05-07T21:49:01;11.75;;;10.00;;
33006;SDS011;19361;51.598;7.650;2023-05-07T21:54:23;12.80;;;11.50;;
33006;SDS011;19361;51.598;7.650;2023-05-07T21:59:44;12.77;;;11.50;;
33006;SDS011;19361;51.598;7.650;2023-05-07T22:05:05;12.82;;;11.57;;
33006;SDS011;19361;51.598;7.650;2023-05-07T22:10:26;12.32;;;11.23;;
33006;SDS011;19361;51.598;7.650;2023-05-07T22:15:47;12.00;;;10.80;;
33006;SDS011;19361;51.598;7.650;2023-05-07T22:21:08;12.32;;;11.02;;
33006;SDS011;19361;51.598;7.650;2023-05-07T22:26:29;12.15;;;11.00;;
33006;SDS011;19361;51.598;7.650;2023-05-07T22:31:50;12.27;;;11.07;;
33006;SDS011;19361;51.598;7.650;2023-05-07T22:37:12;12.10;;;11.00;;
33006;SDS011;19361;51.598;7.650;2023-05-07T22:42:33;12.55;;;11.27;;
33006;SDS011;19361;51.598;7.650;2023-05-07T22:47:54;11.15;;;9.95;;
33006;SDS011;19361;51.598;7.650;2023-05-07T22:53:15;11.15;;;10.15;;
33006;SDS011;19361;51.598;7.650;2023-05-07T22:58:36;11.25;;;9.98;;
33006;SDS011;19361;51.598;7.650;2023-05-07T23:03:57;19.20;;;10.52;;
33006;SDS011;19361;51.598;7.650;2023-05-07T23:09:18;11.27;;;10.15;;
33006;SDS011;19361;51.598;7.650;2023-05-07T23:14:39;10.82;;;9.77;;
33006;SDS011;19361;51.598;7.650;2023-05-07T23:20:00;9.68;;;8.77;;
33006;SDS011;19361;51.598;7.650;2023-05-07T23:25:21;10.40;;;9.55;;
33006;SDS011;19361;51.598;7.650;2023-05-07T23:30:42;8.30;;;7.50;;
33006;SDS011;19361;51.598;7.650;2023-05-07T23:36:04;9.60;;;8.70;;
33006;SDS011;19361;51.598;7.650;2023-05-07T23:41:26;11.00;;;9.90;;
33006;SDS011;19361;51.598;7.650;2023-05-07T23:46:47;9.75;;;8.88;;
33006;SDS011;19361;51.598;7.650;2023-05-07T23:52:08;9.80;;;7.90;;
33006;SDS011;19361;51.598;7.650;2023-05-07T23:57:29;12.48;;;8.82;;
